createdAt,value
2023-01-13T00:01:48.267Z,101412.10
2023-01-13T00:04:15.426Z,101412.23
2023-01-13T00:06:42.599Z,101411.68
2023-01-13T00:09:09.825Z,101411.34
2023-01-13T00:11:36.975Z,101411.39
2023-01-13T00:14:04.121Z,101409.44
2023-01-13T00:16:31.376Z,101405.59
2023-01-13T00:18:58.512Z,101408.36
2023-01-13T00:21:25.616Z,101408.73
2023-01-13T00:23:54.180Z,101410.60
2023-01-13T00:26:23.419Z,101412.41
2023-01-13T00:28:51.027Z,101410.80
2023-01-13T00:31:19.677Z,101403.18
2023-01-13T00:33:49.071Z,101406.16
2023-01-13T00:36:16.356Z,101401.04
2023-01-13T00:38:43.931Z,101390.23
2023-01-13T00:41:12.851Z,101390.22
2023-01-13T00:43:40.107Z,101388.24
2023-01-13T00:46:08.305Z,101384.80
2023-01-13T00:48:35.734Z,101388.58
2023-01-13T00:51:08.107Z,101385.38
2023-01-13T00:53:36.955Z,101383.38
2023-01-13T00:56:10.120Z,101387.48
2023-01-13T00:58:37.296Z,101387.70
2023-01-13T01:01:07.771Z,101387.45
2023-01-13T01:03:35.199Z,101389.84
2023-01-13T01:06:13.390Z,101386.00
2023-01-13T01:08:40.765Z,101386.06
2023-01-13T01:11:12.510Z,101379.95
2023-01-13T01:13:39.861Z,101378.03
2023-01-13T01:16:08.579Z,101382.19
2023-01-13T01:18:36.575Z,101376.86
2023-01-13T01:21:04.123Z,101383.36
2023-01-13T01:23:31.734Z,101377.01
2023-01-13T01:26:13.080Z,101376.14
2023-01-13T01:28:40.372Z,101377.45
2023-01-13T01:31:13.181Z,101377.73
2023-01-13T01:33:41.445Z,101383.64
2023-01-13T01:36:09.532Z,101383.24
2023-01-13T01:38:36.591Z,101382.56
2023-01-13T01:41:03.924Z,101383.27
2023-01-13T01:44:00.009Z,101385.91
2023-01-13T01:46:37.055Z,101377.11
2023-01-13T01:49:39.873Z,101376.25
2023-01-13T01:52:15.964Z,101367.27
2023-01-13T01:54:47.926Z,101366.89
2023-01-13T01:57:19.180Z,101361.84
2023-01-13T01:59:46.425Z,101358.07
2023-01-13T02:02:13.564Z,101363.27
2023-01-13T02:04:41.669Z,101363.23
2023-01-13T02:07:08.718Z,101365.42
2023-01-13T02:09:35.868Z,101370.14
2023-01-13T02:12:21.735Z,101366.04
2023-01-13T02:14:48.894Z,101357.01
2023-01-13T02:17:26.180Z,101356.02
2023-01-13T02:20:14.937Z,101355.38
2023-01-13T02:23:35.835Z,101359.11
2023-01-13T02:26:22.138Z,101355.45
2023-01-13T02:29:42.747Z,101351.73
2023-01-13T02:32:15.001Z,101353.77
2023-01-13T02:35:23.322Z,101357.69
2023-01-13T02:37:50.371Z,101359.46
2023-01-13T02:40:23.565Z,101365.20
2023-01-13T02:43:36.013Z,101365.45
2023-01-13T02:46:15.498Z,101357.60
2023-01-13T02:48:43.691Z,101351.05
2023-01-13T02:51:14.020Z,101349.27
2023-01-13T02:53:44.132Z,101346.01
2023-01-13T02:56:11.486Z,101341.56
2023-01-13T02:58:38.640Z,101346.31
2023-01-13T03:01:05.870Z,101346.15
2023-01-13T03:03:33.039Z,101338.48
2023-01-13T03:06:26.839Z,101338.23
2023-01-13T03:09:03.797Z,101337.16
2023-01-13T03:11:35.496Z,101332.00
2023-01-13T03:14:21.343Z,101325.50
2023-01-13T03:16:59.619Z,101324.31
2023-01-13T03:19:35.864Z,101329.70
2023-01-13T03:22:22.536Z,101334.74
2023-01-13T03:25:17.834Z,101333.30
2023-01-13T03:27:56.053Z,101332.98
2023-01-13T03:30:33.491Z,101330.09
2023-01-13T03:33:19.025Z,101332.94
2023-01-13T03:35:47.798Z,101334.51
2023-01-13T03:38:39.452Z,101337.00
2023-01-13T03:41:07.769Z,101338.45
2023-01-13T03:43:55.965Z,101338.23
2023-01-13T03:46:30.021Z,101333.51
2023-01-13T03:48:57.621Z,101328.77
2023-01-13T03:51:25.554Z,101328.59
2023-01-13T03:53:56.021Z,101326.61
2023-01-13T03:56:27.720Z,101331.33
2023-01-13T03:58:54.981Z,101331.97
2023-01-13T04:01:26.327Z,101328.71
2023-01-13T04:04:01.737Z,101326.89
2023-01-13T04:06:47.938Z,101332.34
2023-01-13T04:09:35.436Z,101329.09
2023-01-13T04:12:09.117Z,101330.02
2023-01-13T04:14:36.197Z,101330.72
2023-01-13T04:17:03.242Z,101332.10
2023-01-13T04:19:31.426Z,101333.27
2023-01-13T04:21:58.978Z,101338.56
2023-01-13T04:24:26.228Z,101345.04
2023-01-13T04:26:53.371Z,101340.27
2023-01-13T04:29:20.468Z,101341.49
2023-01-13T04:31:47.570Z,101342.77
2023-01-13T04:34:14.809Z,101345.00
2023-01-13T04:36:41.876Z,101348.19
2023-01-13T04:39:09.032Z,101351.88
2023-01-13T04:41:55.463Z,101351.50
2023-01-13T04:44:22.568Z,101354.40
2023-01-13T04:46:49.620Z,101360.11
2023-01-13T04:49:16.769Z,101365.52
2023-01-13T04:51:43.873Z,101368.23
2023-01-13T04:54:11.589Z,101368.36
2023-01-13T04:56:38.735Z,101368.70
2023-01-13T04:59:05.884Z,101369.55
2023-01-13T05:01:33.134Z,101369.58
2023-01-13T05:04:00.438Z,101370.41
2023-01-13T05:06:27.535Z,101367.52
2023-01-13T05:08:54.684Z,101369.23
2023-01-13T05:11:40.481Z,101371.45
2023-01-13T05:14:26.256Z,101371.39
2023-01-13T05:17:00.379Z,101377.02
2023-01-13T05:19:32.091Z,101375.61
2023-01-13T05:22:18.098Z,101377.14
2023-01-13T05:25:03.943Z,101374.98
2023-01-13T05:27:30.988Z,101373.17
2023-01-13T05:29:58.315Z,101374.85
2023-01-13T05:32:25.716Z,101375.86
2023-01-13T05:34:52.846Z,101376.36
2023-01-13T05:37:19.968Z,101372.78
2023-01-13T05:40:05.659Z,101372.08
2023-01-13T05:42:51.542Z,101374.23
2023-01-13T05:45:18.637Z,101371.75
2023-01-13T05:47:45.786Z,101365.06
2023-01-13T05:50:12.969Z,101370.95
2023-01-13T05:52:40.188Z,101367.73
2023-01-13T05:55:07.856Z,101371.45
2023-01-13T05:57:34.958Z,101371.56
2023-01-13T06:00:02.555Z,101370.65
2023-01-13T06:02:38.614Z,101375.69
2023-01-13T06:05:06.031Z,101370.75
2023-01-13T06:07:33.081Z,101374.85
2023-01-13T06:10:00.195Z,101372.52
2023-01-13T06:12:27.262Z,101373.14
2023-01-13T06:14:54.325Z,101370.25
2023-01-13T06:17:21.369Z,101376.38
2023-01-13T06:19:48.421Z,101374.62
2023-01-13T06:22:21.896Z,101372.48
2023-01-13T06:24:53.878Z,101375.80
2023-01-13T06:27:21.545Z,101373.27
2023-01-13T06:29:48.794Z,101371.04
2023-01-13T06:32:17.890Z,101372.00
2023-01-13T06:34:47.906Z,101375.98
2023-01-13T06:37:15.168Z,101372.64
2023-01-13T06:39:42.362Z,101374.70
2023-01-13T06:42:28.149Z,101375.35
2023-01-13T06:44:55.349Z,101373.06
2023-01-13T06:47:22.606Z,101367.42
2023-01-13T06:49:49.649Z,101365.20
2023-01-13T06:52:16.952Z,101362.88
2023-01-13T06:54:44.184Z,101367.13
2023-01-13T06:57:11.328Z,101369.21
2023-01-13T06:59:38.661Z,101373.00
2023-01-13T07:02:05.979Z,101371.96
2023-01-13T07:04:33.168Z,101369.95
2023-01-13T07:07:00.319Z,101364.14
2023-01-13T07:09:27.361Z,101362.48
2023-01-13T07:11:54.454Z,101358.31
2023-01-13T07:14:40.116Z,101363.41
2023-01-13T07:17:07.147Z,101363.86
2023-01-13T07:19:34.198Z,101363.77
2023-01-13T07:22:01.522Z,101360.65
2023-01-13T07:24:28.708Z,101361.27
2023-01-13T07:26:55.744Z,101365.10
2023-01-13T07:29:22.892Z,101363.04
2023-01-13T07:31:50.403Z,101361.05
2023-01-13T07:34:17.702Z,101362.77
2023-01-13T07:36:44.955Z,101367.11
2023-01-13T07:39:12.024Z,101366.68
2023-01-13T07:41:58.132Z,101369.19
2023-01-13T07:44:27.821Z,101369.64
2023-01-13T07:46:54.959Z,101373.33
2023-01-13T07:49:22.037Z,101376.36
2023-01-13T07:51:49.024Z,101376.73
2023-01-13T07:54:16.100Z,101377.91
2023-01-13T07:56:43.181Z,101378.65
2023-01-13T07:59:10.296Z,101383.00
2023-01-13T08:01:37.899Z,101380.20
2023-01-13T08:04:05.130Z,101381.93
2023-01-13T08:06:32.427Z,101382.00
2023-01-13T08:08:59.457Z,101377.55
2023-01-13T08:11:26.671Z,101379.08
2023-01-13T08:13:58.082Z,101375.44
2023-01-13T08:16:25.090Z,101376.73
2023-01-13T08:18:52.241Z,101375.08
2023-01-13T08:21:19.309Z,101374.41
2023-01-13T08:23:46.412Z,101373.02
2023-01-13T08:26:15.512Z,101370.13
2023-01-13T08:28:42.567Z,101367.48
2023-01-13T08:31:14.495Z,101369.33
2023-01-13T08:33:42.129Z,101369.64
2023-01-13T08:36:10.562Z,101366.95
2023-01-13T08:38:38.270Z,101368.86
2023-01-13T08:41:12.540Z,101369.16
2023-01-13T08:43:39.686Z,101370.59
2023-01-13T08:46:07.049Z,101364.63
2023-01-13T08:48:34.329Z,101366.04
2023-01-13T08:51:03.020Z,101362.42
2023-01-13T08:53:30.334Z,101360.75
2023-01-13T08:55:57.425Z,101356.46
2023-01-13T08:58:24.540Z,101353.56
2023-01-13T09:00:51.588Z,101351.00
2023-01-13T09:03:18.733Z,101347.47
2023-01-13T09:05:45.984Z,101348.87
2023-01-13T09:08:13.350Z,101350.76
2023-01-13T09:10:40.806Z,101346.17
2023-01-13T09:13:11.949Z,101341.39
2023-01-13T09:15:40.509Z,101338.86
2023-01-13T09:18:07.686Z,101337.30
2023-01-13T09:20:34.728Z,101337.46
2023-01-13T09:23:01.821Z,101340.14
2023-01-13T09:25:28.923Z,101334.53
2023-01-13T09:27:56.905Z,101332.25
2023-01-13T09:30:24.619Z,101329.77
2023-01-13T09:33:11.664Z,101326.61
2023-01-13T09:35:38.815Z,101327.14
2023-01-13T09:38:06.689Z,101326.11
2023-01-13T09:40:33.838Z,101324.99
2023-01-13T09:43:40.929Z,101321.53
2023-01-13T09:46:41.929Z,101317.33
2023-01-13T09:49:21.020Z,101313.70
2023-01-13T09:51:54.734Z,101315.41
2023-01-13T09:54:33.785Z,101314.60
2023-01-13T09:57:01.065Z,101314.40
2023-01-13T09:59:32.691Z,101311.62
2023-01-13T10:02:03.946Z,101303.26
2023-01-13T10:04:31.063Z,101302.63
2023-01-13T10:07:00.903Z,101306.46
2023-01-13T10:09:33.731Z,101295.63
2023-01-13T10:12:19.840Z,101295.85
2023-01-13T10:14:53.444Z,101294.11
2023-01-13T10:17:32.875Z,101285.31
2023-01-13T10:20:09.229Z,101292.43
2023-01-13T10:23:15.289Z,101294.70
2023-01-13T10:26:10.384Z,101293.39
2023-01-13T10:28:37.747Z,101297.30
2023-01-13T10:31:11.061Z,101292.70
2023-01-13T10:33:38.231Z,101291.71
2023-01-13T10:36:18.060Z,101291.84
2023-01-13T10:38:46.568Z,101286.92
2023-01-13T10:41:17.055Z,101285.77
2023-01-13T10:44:02.380Z,101286.17
2023-01-13T10:46:29.616Z,101284.36
2023-01-13T10:48:58.474Z,101280.76
2023-01-13T10:51:30.550Z,101284.42
2023-01-13T10:54:01.840Z,101278.98
2023-01-13T10:56:33.240Z,101284.23
2023-01-13T10:59:09.599Z,101278.22
2023-01-13T11:01:37.519Z,101274.98
2023-01-13T11:04:35.225Z,101270.67
2023-01-13T11:07:03.580Z,101273.23
2023-01-13T11:09:31.272Z,101268.65
2023-01-13T11:11:58.834Z,101263.77
2023-01-13T11:14:36.933Z,101264.54
2023-01-13T11:17:10.098Z,101264.73
2023-01-13T11:19:40.458Z,101262.98
2023-01-13T11:22:11.073Z,101262.86
2023-01-13T11:24:41.782Z,101264.03
2023-01-13T11:27:18.201Z,101261.05
2023-01-13T11:30:10.139Z,101261.67
2023-01-13T11:32:41.427Z,101262.98
2023-01-13T11:35:16.633Z,101263.23
2023-01-13T11:37:45.656Z,101260.61
2023-01-13T11:40:27.808Z,101257.16
2023-01-13T11:43:11.232Z,101263.34
2023-01-13T11:45:46.546Z,101256.82
2023-01-13T11:48:21.287Z,101251.75
2023-01-13T11:51:04.729Z,101257.67
2023-01-13T11:53:53.003Z,101260.80
2023-01-13T11:56:51.265Z,101263.40
2023-01-13T11:59:52.149Z,101256.92
2023-01-13T12:02:25.676Z,101260.71
2023-01-13T12:05:28.694Z,101257.75
2023-01-13T12:08:23.087Z,101266.81
2023-01-13T12:10:54.146Z,101264.98
2023-01-13T12:13:24.776Z,101267.17
2023-01-13T12:15:58.270Z,101271.20
2023-01-13T12:18:37.605Z,101269.64
2023-01-13T12:21:14.163Z,101271.02
2023-01-13T12:23:49.455Z,101271.23
2023-01-13T12:26:16.941Z,101272.43
2023-01-13T12:28:59.328Z,101274.09
2023-01-13T12:31:26.532Z,101277.69
2023-01-13T12:34:26.423Z,101281.98
2023-01-13T12:36:56.091Z,101287.39
2023-01-13T12:39:29.445Z,101284.90
2023-01-13T12:42:40.435Z,101287.15
2023-01-13T12:45:07.789Z,101286.57
2023-01-13T12:47:44.605Z,101288.44
2023-01-13T12:50:24.002Z,101293.54
2023-01-13T12:52:54.622Z,101291.02
2023-01-13T12:55:34.159Z,101296.61
2023-01-13T12:58:07.432Z,101290.28
2023-01-13T13:00:40.891Z,101294.40
2023-01-13T13:03:19.488Z,101293.32
2023-01-13T13:06:00.531Z,101295.95
2023-01-13T13:08:55.686Z,101293.78
2023-01-13T13:11:53.027Z,101295.19
2023-01-13T13:14:55.764Z,101291.98
2023-01-13T13:17:28.996Z,101298.48
2023-01-13T13:19:56.646Z,101298.09
2023-01-13T13:22:26.662Z,101301.84
2023-01-13T13:24:57.714Z,101305.31
2023-01-13T13:27:41.349Z,101300.45
2023-01-13T13:30:20.632Z,101303.91
2023-01-13T13:32:54.790Z,101304.89
2023-01-13T13:35:52.015Z,101302.89
2023-01-13T13:38:40.905Z,101307.20
2023-01-13T13:41:36.912Z,101309.77
2023-01-13T13:44:47.295Z,101317.58
2023-01-13T13:47:14.580Z,101320.70
2023-01-13T13:52:36.177Z,101316.43
2023-01-13T13:55:08.525Z,101317.61
2023-01-13T13:57:39.669Z,101318.83
2023-01-13T14:00:28.628Z,101317.06
2023-01-13T14:03:02.024Z,101322.21
2023-01-13T14:05:36.185Z,101322.61
2023-01-13T14:08:09.336Z,101319.82
2023-01-13T14:10:37.947Z,101323.20
2023-01-13T14:13:30.661Z,101318.45
2023-01-13T14:16:07.616Z,101322.67
2023-01-13T14:18:43.186Z,101328.60
2023-01-13T14:21:27.996Z,101329.72
2023-01-13T14:23:58.379Z,101326.70
2023-01-13T14:26:27.057Z,101327.31
2023-01-13T14:28:54.559Z,101328.52
2023-01-13T14:31:21.694Z,101332.42
2023-01-13T14:33:59.776Z,101337.12
2023-01-13T14:36:33.053Z,101330.56
2023-01-13T14:39:03.298Z,101333.56
2023-01-13T14:48:35.957Z,101325.21
2023-01-13T14:51:05.905Z,101322.96
2023-01-13T14:53:39.722Z,101328.73
2023-01-13T14:56:42.341Z,101325.48
2023-01-13T14:59:31.461Z,101320.25
2023-01-13T15:01:58.886Z,101324.89
2023-01-13T15:04:34.261Z,101324.43
2023-01-13T15:07:01.518Z,101321.05
2023-01-13T15:09:31.357Z,101325.98
2023-01-13T15:11:59.006Z,101332.81
2023-01-13T15:14:27.975Z,101333.81
2023-01-13T15:16:56.032Z,101330.77
2023-01-13T15:19:23.113Z,101329.23
2023-01-13T15:21:50.193Z,101333.31
2023-01-13T15:24:17.290Z,101339.11
2023-01-13T15:26:44.452Z,101338.45
2023-01-13T15:29:14.723Z,101335.75
2023-01-13T15:31:42.635Z,101332.84
2023-01-13T15:34:09.787Z,101331.27
2023-01-13T15:36:38.162Z,101325.85
2023-01-13T15:39:05.222Z,101328.27
2023-01-13T15:41:51.469Z,101322.65
2023-01-13T15:44:37.202Z,101327.79
2023-01-13T15:47:06.747Z,101322.41
2023-01-13T15:49:41.305Z,101321.02
2023-01-13T15:52:19.333Z,101328.61
2023-01-13T15:54:46.554Z,101318.86
2023-01-13T15:57:24.948Z,101320.70
2023-01-13T15:59:53.797Z,101317.82
2023-01-13T16:02:22.795Z,101321.67
2023-01-13T16:04:51.612Z,101323.02
2023-01-13T16:07:18.861Z,101316.34
2023-01-13T16:09:46.319Z,101319.22
2023-01-13T16:12:13.635Z,101317.70
2023-01-13T16:14:40.762Z,101320.51
2023-01-13T16:17:16.560Z,101319.63
2023-01-13T16:19:44.271Z,101317.25
2023-01-13T16:22:14.210Z,101312.80
2023-01-13T16:24:41.619Z,101314.63
2023-01-13T16:27:22.575Z,101318.48
2023-01-13T16:29:50.140Z,101317.88
2023-01-13T16:32:17.397Z,101307.29
2023-01-13T16:34:44.653Z,101305.61
2023-01-13T16:37:32.051Z,101308.58
2023-01-13T16:39:59.231Z,101317.88
2023-01-13T16:42:26.451Z,101309.70
2023-01-13T16:44:53.488Z,101305.29
2023-01-13T16:47:20.593Z,101301.84
2023-01-13T16:49:47.643Z,101298.89
2023-01-13T16:52:14.821Z,101305.95
2023-01-13T16:54:42.150Z,101303.92
2023-01-13T16:57:12.981Z,101306.16
2023-01-13T16:59:40.140Z,101300.77
2023-01-13T17:02:19.268Z,101303.18
2023-01-13T17:04:47.831Z,101299.17
2023-01-13T17:07:17.055Z,101299.42
2023-01-13T17:09:44.138Z,101303.98
2023-01-13T17:12:11.911Z,101301.64
2023-01-13T17:14:38.870Z,101299.63
2023-01-13T17:17:05.995Z,101299.44
2023-01-13T17:19:33.358Z,101302.89
2023-01-13T17:22:00.378Z,101300.02
2023-01-13T17:24:29.479Z,101298.61
2023-01-13T17:26:57.658Z,101311.02
2023-01-13T17:29:26.762Z,101300.29
2023-01-13T17:31:53.952Z,101306.57
2023-01-13T17:34:21.413Z,101298.55
2023-01-13T17:36:48.736Z,101304.92
2023-01-13T17:39:20.755Z,101295.23
2023-01-13T17:41:48.016Z,101288.93
2023-01-13T17:44:16.254Z,101286.58
2023-01-13T17:46:43.750Z,101288.80
2023-01-13T17:49:14.754Z,101291.80
2023-01-13T17:51:41.940Z,101286.33
2023-01-13T17:54:12.534Z,101291.63
2023-01-13T17:56:40.649Z,101283.45
2023-01-13T17:59:10.197Z,101281.61
2023-01-13T18:01:38.130Z,101288.56
2023-01-13T18:04:14.189Z,101290.59
2023-01-13T18:06:41.186Z,101285.00
2023-01-13T18:09:08.282Z,101278.55
2023-01-13T18:11:35.443Z,101278.86
2023-01-13T18:14:02.885Z,101286.30
2023-01-13T18:16:30.781Z,101277.92
2023-01-13T18:19:19.390Z,101278.60
2023-01-13T18:22:05.792Z,101271.79
2023-01-13T18:24:51.500Z,101279.07
2023-01-13T18:27:21.451Z,101285.45
2023-01-13T18:29:50.267Z,101277.25
2023-01-13T18:32:17.438Z,101274.30
2023-01-13T18:34:44.479Z,101263.92
2023-01-13T18:37:12.156Z,101277.69
2023-01-13T18:39:39.310Z,101279.84
2023-01-13T18:42:25.564Z,101278.87
2023-01-13T18:44:57.350Z,101270.94
2023-01-13T18:47:25.682Z,101274.28
2023-01-13T18:49:52.847Z,101274.93
2023-01-13T18:52:19.886Z,101276.42
2023-01-13T18:54:47.648Z,101276.72
2023-01-13T18:57:15.568Z,101272.78
2023-01-13T18:59:42.707Z,101281.20
2023-01-13T19:02:15.130Z,101279.55
2023-01-13T19:04:42.843Z,101274.81
2023-01-13T19:07:13.169Z,101277.70
2023-01-13T19:09:42.282Z,101275.60
2023-01-13T19:12:11.898Z,101276.08
2023-01-13T19:14:40.633Z,101278.79
2023-01-13T19:17:11.340Z,101277.30
2023-01-13T19:19:45.888Z,101276.96
2023-01-13T19:22:13.892Z,101282.00
2023-01-13T19:24:42.295Z,101279.09
2023-01-13T19:27:10.239Z,101282.29
2023-01-13T19:29:37.390Z,101276.02
2023-01-13T19:32:09.143Z,101276.54
2023-01-13T19:34:36.610Z,101278.34
2023-01-13T19:37:04.106Z,101279.36
2023-01-13T19:39:31.158Z,101285.65
2023-01-13T19:42:24.576Z,101287.95
2023-01-13T19:45:11.241Z,101283.73
2023-01-13T19:47:39.160Z,101287.06
2023-01-13T19:50:08.362Z,101286.92
2023-01-13T19:52:35.719Z,101288.98
2023-01-13T19:55:02.802Z,101288.49
2023-01-13T19:57:30.007Z,101287.30
2023-01-13T19:59:57.155Z,101285.11
2023-01-13T20:02:31.826Z,101292.40
2023-01-13T20:05:00.305Z,101295.71
2023-01-13T20:07:29.335Z,101295.46
2023-01-13T20:09:56.760Z,101292.34
2023-01-13T20:12:27.711Z,101292.82
2023-01-13T20:15:00.099Z,101293.59
2023-01-13T20:17:27.549Z,101297.20
2023-01-13T20:19:54.843Z,101289.88
2023-01-13T20:22:21.988Z,101288.08
2023-01-13T20:24:55.081Z,101287.20
2023-01-13T20:27:24.128Z,101285.48
2023-01-13T20:29:51.332Z,101282.79
2023-01-13T20:32:18.377Z,101282.76
2023-01-13T20:34:45.642Z,101283.95
2023-01-13T20:37:12.771Z,101283.81
2023-01-13T20:39:43.322Z,101281.36
2023-01-13T20:42:29.293Z,101286.27
2023-01-13T20:44:57.170Z,101273.20
2023-01-13T20:47:24.697Z,101274.91
2023-01-13T20:49:52.756Z,101279.54
2023-01-13T20:52:20.050Z,101276.48
2023-01-13T20:54:47.195Z,101274.08
2023-01-13T20:57:14.419Z,101274.77
2023-01-13T20:59:41.602Z,101270.02
2023-01-13T21:02:13.297Z,101268.02
2023-01-13T21:04:40.719Z,101267.55
2023-01-13T21:07:08.064Z,101269.16
2023-01-13T21:09:35.201Z,101272.52
2023-01-13T21:12:21.107Z,101276.03
2023-01-13T21:15:07.227Z,101272.38
2023-01-13T21:17:53.096Z,101264.30
2023-01-13T21:20:20.161Z,101268.09
2023-01-13T21:22:48.320Z,101261.52
2023-01-13T21:25:15.972Z,101264.77
2023-01-13T21:27:44.261Z,101268.55
2023-01-13T21:30:15.129Z,101268.58
2023-01-13T21:32:43.793Z,101270.57
2023-01-13T21:35:11.458Z,101270.16
2023-01-13T21:37:39.028Z,101268.14
2023-01-13T21:40:07.852Z,101262.05
2023-01-13T21:42:53.679Z,101262.69
2023-01-13T21:45:39.457Z,101260.83
2023-01-13T21:48:07.299Z,101261.73
2023-01-13T21:50:34.616Z,101261.05
2023-01-13T21:53:01.830Z,101265.77
2023-01-13T21:55:29.153Z,101262.84
2023-01-13T21:58:14.668Z,101264.40
2023-01-13T22:00:43.209Z,101264.41
2023-01-13T22:03:11.531Z,101262.35
2023-01-13T22:05:38.736Z,101263.23
2023-01-13T22:08:05.892Z,101266.62
2023-01-13T22:10:34.304Z,101268.89
2023-01-13T22:13:21.871Z,101265.34
2023-01-13T22:15:48.921Z,101263.98
2023-01-13T22:18:18.308Z,101266.20
2023-01-13T22:20:46.022Z,101265.42
2023-01-13T22:23:13.133Z,101263.76
2023-01-13T22:25:40.108Z,101266.48
2023-01-13T22:28:09.531Z,101263.59
2023-01-13T22:30:36.757Z,101265.12
2023-01-13T22:33:03.975Z,101264.40
2023-01-13T22:35:31.140Z,101257.80
2023-01-13T22:37:58.502Z,101256.54
2023-01-13T22:40:25.546Z,101254.36
2023-01-13T22:42:52.604Z,101255.20
2023-01-13T22:45:19.841Z,101253.48
2023-01-13T22:47:46.988Z,101251.29
2023-01-13T22:50:14.043Z,101247.52
2023-01-13T22:52:41.108Z,101243.43
2023-01-13T22:55:08.622Z,101250.02
2023-01-13T22:57:46.613Z,101249.01
2023-01-13T23:00:15.122Z,101253.98
2023-01-13T23:02:42.284Z,101257.14
2023-01-13T23:05:09.574Z,101263.09
2023-01-13T23:07:36.623Z,101259.55
2023-01-13T23:10:04.666Z,101253.54
2023-01-13T23:12:31.644Z,101253.54
2023-01-13T23:14:58.665Z,101252.61
2023-01-13T23:17:25.828Z,101253.10
2023-01-13T23:19:52.944Z,101249.29
2023-01-13T23:22:20.094Z,101256.13
2023-01-13T23:24:47.220Z,101251.95
2023-01-13T23:27:14.199Z,101252.45
2023-01-13T23:29:41.542Z,101247.65
2023-01-13T23:32:08.592Z,101249.56
2023-01-13T23:34:35.604Z,101247.05
2023-01-13T23:37:02.690Z,101249.40
2023-01-13T23:39:29.738Z,101253.00
2023-01-13T23:41:56.890Z,101259.45
2023-01-13T23:44:23.946Z,101260.42
2023-01-13T23:46:51.084Z,101259.25
2023-01-13T23:49:18.339Z,101251.27
2023-01-13T23:51:45.586Z,101254.81
2023-01-13T23:54:12.634Z,101252.27
2023-01-13T23:56:39.783Z,101251.64
2023-01-13T23:59:07.041Z,101255.27
